createdAt,value
2022-10-06T00:00:04.498Z,98316.50
2022-10-06T00:02:34.125Z,98314.00
2022-10-06T00:05:00.685Z,98313.75
2022-10-06T00:07:27.246Z,98320.38
2022-10-06T00:09:53.764Z,98329.78
2022-10-06T00:12:20.328Z,98327.28
2022-10-06T00:14:48.225Z,98338.31
2022-10-06T00:17:14.775Z,98338.31
2022-10-06T00:19:41.317Z,98333.91
2022-10-06T00:22:07.875Z,98335.28
2022-10-06T00:24:34.399Z,98336.09
2022-10-06T00:27:01.353Z,98324.78
2022-10-06T00:29:27.924Z,98337.50
2022-10-06T00:31:55.848Z,98319.25
2022-10-06T00:34:22.440Z,98339.41
2022-10-06T00:36:49.018Z,98336.09
2022-10-06T00:39:15.522Z,98328.66
2022-10-06T00:41:42.063Z,98333.63
2022-10-06T00:44:08.603Z,98335.56
2022-10-06T00:46:40.163Z,98338.03
2022-10-06T00:49:14.229Z,98331.94
2022-10-06T00:51:44.516Z,98328.09
2022-10-06T00:54:11.647Z,98336.38
2022-10-06T00:56:38.851Z,98347.69
2022-10-06T00:59:05.867Z,98345.50
2022-10-06T01:01:33.644Z,98349.34
2022-10-06T01:04:06.629Z,98352.66
2022-10-06T01:06:42.736Z,98345.75
2022-10-06T01:09:09.300Z,98349.06
2022-10-06T01:11:36.150Z,98352.66
2022-10-06T01:14:02.689Z,98365.34
2022-10-06T01:16:32.089Z,98362.03
2022-10-06T01:18:59.036Z,98359.56
2022-10-06T01:21:31.136Z,98355.69
2022-10-06T01:24:01.088Z,98360.69
2022-10-06T01:26:29.098Z,98352.66
2022-10-06T01:28:55.780Z,98362.59
2022-10-06T01:31:22.897Z,98360.09
2022-10-06T01:33:51.751Z,98362.84
2022-10-06T01:36:18.594Z,98358.44
2022-10-06T01:38:45.115Z,98375.56
2022-10-06T01:41:13.164Z,98372.25
2022-10-06T01:43:39.784Z,98372.81
2022-10-06T01:46:06.389Z,98365.91
2022-10-06T01:48:35.115Z,98356.50
2022-10-06T01:51:01.685Z,98356.50
2022-10-06T01:53:28.200Z,98362.03
2022-10-06T01:55:57.886Z,98362.59
2022-10-06T01:58:26.056Z,98362.03
2022-10-06T02:00:52.956Z,98370.56
2022-10-06T02:03:19.515Z,98365.59
2022-10-06T02:05:46.058Z,98373.88
2022-10-06T02:08:12.588Z,98375.81
2022-10-06T02:10:39.124Z,98375.53
2022-10-06T02:13:05.687Z,98382.16
2022-10-06T02:15:33.593Z,98378.03
2022-10-06T02:18:00.189Z,98381.06
2022-10-06T02:20:26.889Z,98381.91
2022-10-06T02:22:53.399Z,98393.22
2022-10-06T02:25:20.048Z,98390.47
2022-10-06T02:27:46.637Z,98391.84
2022-10-06T02:30:13.315Z,98394.91
2022-10-06T02:32:42.229Z,98394.06
2022-10-06T02:35:09.745Z,98389.63
2022-10-06T02:37:36.264Z,98397.09
2022-10-06T02:40:02.836Z,98400.97
2022-10-06T02:42:29.374Z,98409.81
2022-10-06T02:44:55.889Z,98400.41
2022-10-06T02:47:22.434Z,98400.16
2022-10-06T02:49:50.354Z,98407.88
2022-10-06T02:52:17.101Z,98403.47
2022-10-06T02:54:43.636Z,98406.50
2022-10-06T02:57:10.175Z,98412.31
2022-10-06T02:59:36.706Z,98412.84
2022-10-06T03:02:03.725Z,98418.09
2022-10-06T03:04:30.321Z,98415.34
2022-10-06T03:06:58.277Z,98423.63
2022-10-06T03:09:24.993Z,98423.63
2022-10-06T03:11:51.676Z,98426.38
2022-10-06T03:14:21.812Z,98423.34
2022-10-06T03:16:49.057Z,98424.72
2022-10-06T03:19:15.663Z,98433.00
2022-10-06T03:21:43.608Z,98429.41
2022-10-06T03:24:12.152Z,98436.31
2022-10-06T03:26:40.466Z,98438.22
2022-10-06T03:29:11.295Z,98438.53
2022-10-06T03:31:38.854Z,98431.88
2022-10-06T03:34:05.834Z,98441.00
2022-10-06T03:36:33.881Z,98437.41
2022-10-06T03:39:01.294Z,98439.09
2022-10-06T03:41:31.629Z,98455.09
2022-10-06T03:43:59.614Z,98454.25
2022-10-06T03:46:28.662Z,98457.56
2022-10-06T03:48:55.622Z,98460.06
2022-10-06T03:51:24.840Z,98461.44
2022-10-06T03:53:51.950Z,98468.88
2022-10-06T03:56:20.465Z,98474.41
2022-10-06T03:58:50.920Z,98484.38
2022-10-06T04:01:25.020Z,98483.25
2022-10-06T04:03:53.771Z,98491.81
2022-10-06T04:06:20.480Z,98483.25
2022-10-06T04:08:49.654Z,98491.00
2022-10-06T04:11:18.520Z,98485.47
2022-10-06T04:13:45.249Z,98492.94
2022-10-06T04:16:15.656Z,98488.50
2022-10-06T04:18:43.625Z,98498.47
2022-10-06T04:21:10.556Z,98491.25
2022-10-06T04:23:37.066Z,98489.31
2022-10-06T04:26:06.027Z,98497.91
2022-10-06T04:28:33.651Z,98504.81
2022-10-06T04:31:01.627Z,98493.75
2022-10-06T04:33:29.664Z,98503.97
2022-10-06T04:35:57.400Z,98500.09
2022-10-06T04:38:24.013Z,98505.63
2022-10-06T04:40:50.587Z,98504.25
2022-10-06T04:43:17.149Z,98508.13
2022-10-06T04:45:43.714Z,98510.59
2022-10-06T04:48:10.346Z,98508.94
2022-10-06T04:50:38.237Z,98517.50
2022-10-06T04:53:04.837Z,98520.81
2022-10-06T04:55:31.355Z,98523.03
2022-10-06T04:57:57.919Z,98521.13
2022-10-06T05:00:24.469Z,98531.63
2022-10-06T05:02:53.091Z,98535.19
2022-10-06T05:05:19.620Z,98547.91
2022-10-06T05:07:47.560Z,98550.94
2022-10-06T05:10:14.244Z,98550.69
2022-10-06T05:12:40.796Z,98550.94
2022-10-06T05:15:08.630Z,98552.31
2022-10-06T05:17:35.195Z,98558.41
2022-10-06T05:20:01.767Z,98560.63
2022-10-06T05:22:28.292Z,98572.22
2022-10-06T05:24:56.160Z,98576.63
2022-10-06T05:27:22.729Z,98576.06
2022-10-06T05:29:49.252Z,98567.81
2022-10-06T05:32:15.783Z,98574.97
2022-10-06T05:34:42.306Z,98578.00
2022-10-06T05:37:08.834Z,98581.63
2022-10-06T05:39:35.363Z,98582.72
2022-10-06T05:42:03.403Z,98589.34
2022-10-06T05:44:29.921Z,98588.25
2022-10-06T05:46:56.457Z,98593.50
2022-10-06T05:49:22.959Z,98590.19
2022-10-06T05:51:49.829Z,98606.22
2022-10-06T05:54:16.363Z,98607.34
2022-10-06T05:56:42.895Z,98602.63
2022-10-06T05:59:10.798Z,98599.91
2022-10-06T06:01:39.189Z,98607.63
2022-10-06T06:04:07.646Z,98608.47
2022-10-06T06:06:36.071Z,98603.19
2022-10-06T06:09:05.303Z,98602.06
2022-10-06T06:11:31.856Z,98614.53
2022-10-06T06:13:59.607Z,98618.63
2022-10-06T06:16:29.260Z,98624.41
2022-10-06T06:18:55.879Z,98623.03
2022-10-06T06:21:22.783Z,98626.59
2022-10-06T06:23:49.786Z,98636.03
2022-10-06T06:26:18.537Z,98638.00
2022-10-06T06:28:45.778Z,98643.28
2022-10-06T06:31:19.049Z,98646.03
2022-10-06T06:33:50.401Z,98654.66
2022-10-06T06:36:19.478Z,98666.81
2022-10-06T06:38:47.622Z,98669.28
2022-10-06T06:41:16.075Z,98673.44
2022-10-06T06:43:42.751Z,98676.50
2022-10-06T06:46:09.721Z,98671.78
2022-10-06T06:48:36.318Z,98689.75
2022-10-06T06:51:04.908Z,98691.09
2022-10-06T06:53:31.840Z,98684.19
2022-10-06T06:55:58.344Z,98693.59
2022-10-06T06:58:25.335Z,98695.25
2022-10-06T07:00:52.002Z,98693.03
2022-10-06T07:03:32.939Z,98691.09
2022-10-06T07:06:11.783Z,98706.31
2022-10-06T07:08:40.588Z,98692.94
2022-10-06T07:11:14.852Z,98705.94
2022-10-06T07:13:41.974Z,98719.44
2022-10-06T07:16:10.967Z,98719.44
2022-10-06T07:18:37.572Z,98724.88
2022-10-06T07:21:04.128Z,98724.81
2022-10-06T07:23:32.084Z,98715.31
2022-10-06T07:25:58.593Z,98722.81
2022-10-06T07:28:25.176Z,98729.78
2022-10-06T07:30:51.732Z,98731.56
2022-10-06T07:33:18.425Z,98741.06
2022-10-06T07:35:44.934Z,98724.72
2022-10-06T07:38:11.456Z,98730.19
2022-10-06T07:40:46.368Z,98736.16
2022-10-06T07:43:22.476Z,98736.56
2022-10-06T07:45:49.080Z,98740.44
2022-10-06T07:48:17.205Z,98742.53
2022-10-06T07:50:44.916Z,98740.84
2022-10-06T07:53:11.593Z,98739.50
2022-10-06T07:55:42.231Z,98739.72
2022-10-06T07:58:12.199Z,98745.13
2022-10-06T08:00:38.759Z,98745.41
2022-10-06T08:03:05.397Z,98744.47
2022-10-06T08:05:31.944Z,98743.75
2022-10-06T08:07:58.612Z,98752.78
2022-10-06T08:10:25.257Z,98758.53
2022-10-06T08:12:53.213Z,98764.91
2022-10-06T08:15:19.807Z,98769.03
2022-10-06T08:17:46.356Z,98770.94
2022-10-06T08:20:13.572Z,98771.41
2022-10-06T08:22:40.580Z,98769.03
2022-10-06T08:25:08.724Z,98764.97
2022-10-06T08:27:36.650Z,98774.59
2022-10-06T08:30:05.855Z,98777.75
2022-10-06T08:32:33.084Z,98771.34
2022-10-06T08:34:59.620Z,98776.78
2022-10-06T08:37:26.160Z,98778.34
2022-10-06T08:39:53.812Z,98778.25
2022-10-06T08:42:28.407Z,98778.47
2022-10-06T08:45:05.445Z,98776.72
2022-10-06T08:47:35.522Z,98772.38
2022-10-06T08:50:04.921Z,98767.53
2022-10-06T08:52:44.603Z,98776.47
2022-10-06T08:55:24.752Z,98780.56
2022-10-06T08:58:04.100Z,98782.47
2022-10-06T09:00:32.671Z,98785.19
2022-10-06T09:03:00.559Z,98794.50
2022-10-06T09:05:27.896Z,98784.19
2022-10-06T09:08:10.322Z,98776.56
2022-10-06T09:10:44.234Z,98788.44
2022-10-06T09:13:20.967Z,98791.84
2022-10-06T09:15:55.542Z,98786.19
2022-10-06T09:18:49.445Z,98787.44
2022-10-06T09:21:17.901Z,98790.34
2022-10-06T09:23:50.238Z,98785.75
2022-10-06T09:26:19.096Z,98780.53
2022-10-06T09:28:45.690Z,98784.84
2022-10-06T09:31:22.188Z,98788.84
2022-10-06T09:33:50.957Z,98794.13
2022-10-06T09:36:17.577Z,98788.88
2022-10-06T09:38:50.335Z,98784.97
2022-10-06T09:41:16.924Z,98788.31
2022-10-06T09:43:52.346Z,98789.16
2022-10-06T09:46:23.540Z,98785.38
2022-10-06T09:49:06.207Z,98793.53
2022-10-06T09:51:33.188Z,98796.44
2022-10-06T09:54:08.224Z,98801.19
2022-10-06T09:56:34.786Z,98789.34
2022-10-06T09:59:01.381Z,98796.13
2022-10-06T10:01:30.535Z,98800.47
2022-10-06T10:04:19.534Z,98801.78
2022-10-06T10:06:46.183Z,98799.19
2022-10-06T10:09:29.628Z,98797.28
2022-10-06T10:12:11.357Z,98791.53
2022-10-06T10:14:38.413Z,98800.97
2022-10-06T10:17:13.548Z,98799.47
2022-10-06T10:19:40.173Z,98804.22
2022-10-06T10:22:16.694Z,98814.97
2022-10-06T10:24:52.226Z,98807.06
2022-10-06T10:27:22.709Z,98808.16
2022-10-06T10:29:59.067Z,98816.91
2022-10-06T10:32:56.597Z,98809.53
2022-10-06T10:35:27.231Z,98817.34
2022-10-06T10:37:59.910Z,98822.66
2022-10-06T10:40:37.233Z,98834.66
2022-10-06T10:43:14.064Z,98832.09
2022-10-06T10:45:45.909Z,98826.38
2022-10-06T10:48:20.919Z,98829.97
2022-10-06T10:50:56.172Z,98828.41
2022-10-06T10:53:28.979Z,98833.81
2022-10-06T10:55:56.650Z,98837.78
2022-10-06T10:58:30.477Z,98842.34
2022-10-06T11:01:02.940Z,98843.91
2022-10-06T11:03:31.195Z,98847.91
2022-10-06T11:06:17.843Z,98860.09
2022-10-06T11:08:50.017Z,98862.03
2022-10-06T11:11:28.363Z,98867.59
2022-10-06T11:13:59.699Z,98861.22
2022-10-06T11:16:40.825Z,98861.28
2022-10-06T11:19:22.796Z,98861.16
2022-10-06T11:21:54.391Z,98849.22
2022-10-06T11:24:30.715Z,98862.56
2022-10-06T11:27:15.566Z,98850.78
2022-10-06T11:29:54.245Z,98849.28
2022-10-06T11:32:27.131Z,98852.75
2022-10-06T11:34:55.676Z,98840.16
2022-10-06T11:37:35.683Z,98835.97
2022-10-06T11:40:24.575Z,98843.50
2022-10-06T11:43:00.583Z,98834.56
2022-10-06T11:45:33.384Z,98832.41
2022-10-06T11:48:18.602Z,98823.91
2022-10-06T11:50:46.561Z,98811.91
2022-10-06T11:53:39.653Z,98818.78
2022-10-06T11:56:37.415Z,98822.13
2022-10-06T11:59:25.893Z,98819.69
2022-10-06T12:01:57.145Z,98823.00
2022-10-06T12:04:24.824Z,98822.88
2022-10-06T12:07:01.387Z,98830.31
2022-10-06T12:09:51.721Z,98827.78
2022-10-06T12:13:05.712Z,98832.44
2022-10-06T12:17:06.095Z,98831.63
2022-10-06T12:19:06.276Z,98830.31
2022-10-06T12:21:42.301Z,98828.41
2022-10-06T12:24:25.151Z,98827.47
2022-10-06T12:26:59.548Z,98833.38
2022-10-06T12:29:39.438Z,98829.56
2022-10-06T12:32:17.675Z,98820.47
2022-10-06T12:34:57.652Z,98823.69
2022-10-06T12:37:40.465Z,98813.84
2022-10-06T12:40:44.318Z,98817.59
2022-10-06T12:43:55.093Z,98819.25
2022-10-06T12:46:32.843Z,98816.69
2022-10-06T12:49:14.304Z,98813.06
2022-10-06T12:51:42.435Z,98816.97
2022-10-06T12:54:16.452Z,98821.38
2022-10-06T12:56:44.067Z,98821.66
2022-10-06T12:59:19.586Z,98814.72
2022-10-06T13:01:46.602Z,98808.56
2022-10-06T13:04:32.365Z,98804.88
2022-10-06T13:06:59.023Z,98807.16
2022-10-06T13:09:25.702Z,98810.47
2022-10-06T13:11:52.269Z,98798.84
2022-10-06T13:14:20.185Z,98801.16
2022-10-06T13:16:48.300Z,98805.88
2022-10-06T13:19:17.720Z,98801.91
2022-10-06T13:21:45.092Z,98797.88
2022-10-06T13:24:13.302Z,98804.13
2022-10-06T13:26:41.304Z,98794.63
2022-10-06T13:29:18.466Z,98792.25
2022-10-06T13:31:52.860Z,98794.75
2022-10-06T13:34:27.571Z,98798.25
2022-10-06T13:36:54.679Z,98801.69
2022-10-06T13:39:23.356Z,98788.66
2022-10-06T13:41:52.333Z,98795.00
2022-10-06T13:44:28.926Z,98789.78
2022-10-06T13:47:00.303Z,98787.81
2022-10-06T13:49:29.257Z,98783.53
2022-10-06T13:51:59.383Z,98781.41
2022-10-06T13:54:28.456Z,98784.31
2022-10-06T13:56:55.110Z,98795.72
2022-10-06T13:59:35.235Z,98781.81
2022-10-06T14:02:22.306Z,98784.31
2022-10-06T14:05:22.974Z,98783.38
2022-10-06T14:07:50.461Z,98786.16
2022-10-06T14:10:18.629Z,98773.31
2022-10-06T14:12:46.021Z,98789.47
2022-10-06T14:15:18.700Z,98785.66
2022-10-06T14:17:53.468Z,98779.81
2022-10-06T14:20:44.852Z,98781.91
2022-10-06T14:23:43.351Z,98775.50
2022-10-06T14:26:11.291Z,98777.03
2022-10-06T14:28:38.144Z,98777.34
2022-10-06T14:31:04.933Z,98779.00
2022-10-06T14:33:32.899Z,98780.47
2022-10-06T14:35:59.672Z,98780.72
2022-10-06T14:38:26.234Z,98774.81
2022-10-06T14:40:52.796Z,98770.69
2022-10-06T14:43:19.365Z,98772.50
2022-10-06T14:45:46.119Z,98782.00
2022-10-06T14:48:13.681Z,98771.63
2022-10-06T14:50:41.961Z,98775.47
2022-10-06T14:53:10.416Z,98781.88
2022-10-06T14:55:37.360Z,98781.06
2022-10-06T14:58:03.911Z,98766.44
2022-10-06T15:00:30.488Z,98776.53
2022-10-06T15:02:57.162Z,98769.03
2022-10-06T15:05:24.064Z,98769.72
2022-10-06T15:07:52.025Z,98773.72
2022-10-06T15:10:18.674Z,98765.28
2022-10-06T15:12:45.271Z,98770.19
2022-10-06T15:15:11.836Z,98767.44
2022-10-06T15:17:38.446Z,98769.47
2022-10-06T15:20:05.751Z,98773.31
2022-10-06T15:22:32.323Z,98765.63
2022-10-06T15:25:00.262Z,98770.38
2022-10-06T15:27:26.910Z,98767.91
2022-10-06T15:29:53.630Z,98766.88
2022-10-06T15:32:20.244Z,98769.19
2022-10-06T15:34:46.802Z,98764.72
2022-10-06T15:37:13.453Z,98770.22
2022-10-06T15:39:40.022Z,98770.88
2022-10-06T15:42:08.303Z,98773.78
2022-10-06T15:44:35.365Z,98769.66
2022-10-06T15:47:05.415Z,98776.09
2022-10-06T15:49:31.983Z,98774.34
2022-10-06T15:51:59.962Z,98775.41
2022-10-06T15:54:28.557Z,98780.69
2022-10-06T15:56:56.700Z,98780.72
2022-10-06T15:59:25.800Z,98776.69
2022-10-06T16:01:53.175Z,98780.81
2022-10-06T16:04:22.447Z,98775.84
2022-10-06T16:06:49.167Z,98774.31
2022-10-06T16:09:17.720Z,98775.97
2022-10-06T16:11:45.074Z,98785.13
2022-10-06T16:14:11.666Z,98777.25
2022-10-06T16:16:43.494Z,98784.06
2022-10-06T16:19:10.838Z,98777.38
2022-10-06T16:21:37.493Z,98783.22
2022-10-06T16:24:04.219Z,98786.81
2022-10-06T16:26:30.870Z,98784.41
2022-10-06T16:28:57.663Z,98789.75
2022-10-06T16:31:24.625Z,98798.13
2022-10-06T16:33:52.898Z,98795.81
2022-10-06T16:36:19.987Z,98797.72
2022-10-06T16:38:50.009Z,98801.22
2022-10-06T16:41:16.960Z,98805.75
2022-10-06T16:43:45.590Z,98800.84
2022-10-06T16:46:14.680Z,98797.00
2022-10-06T16:48:43.666Z,98804.38
2022-10-06T16:51:13.797Z,98808.31
2022-10-06T16:53:41.741Z,98810.59
2022-10-06T16:56:11.231Z,98816.28
2022-10-06T16:58:39.478Z,98814.53
2022-10-06T17:01:06.339Z,98816.50
2022-10-06T17:03:33.071Z,98815.66
2022-10-06T17:06:04.862Z,98816.78
2022-10-06T17:08:32.854Z,98814.09
2022-10-06T17:11:05.073Z,98815.50
2022-10-06T17:13:32.012Z,98817.44
2022-10-06T17:16:01.566Z,98822.19
2022-10-06T17:18:28.202Z,98824.97
2022-10-06T17:20:56.480Z,98823.59
2022-10-06T17:23:23.168Z,98829.16
2022-10-06T17:26:12.397Z,98819.75
2022-10-06T17:28:39.027Z,98826.69
2022-10-06T17:31:06.031Z,98820.63
2022-10-06T17:33:35.016Z,98820.88
2022-10-06T17:36:06.787Z,98815.66
2022-10-06T17:38:34.417Z,98816.75
2022-10-06T17:41:02.968Z,98824.50
2022-10-06T17:43:29.526Z,98819.00
2022-10-06T17:45:56.253Z,98821.75
2022-10-06T17:48:25.962Z,98823.13
2022-10-06T17:50:59.172Z,98831.97
2022-10-06T17:53:25.815Z,98830.84
2022-10-06T17:55:52.563Z,98829.75
2022-10-06T17:58:20.498Z,98826.44
2022-10-06T18:00:47.117Z,98833.31
2022-10-06T18:03:13.794Z,98822.78
2022-10-06T18:05:40.359Z,98826.94
2022-10-06T18:08:09.644Z,98817.25
2022-10-06T18:10:36.180Z,98822.78
2022-10-06T18:13:02.770Z,98819.16
2022-10-06T18:15:34.819Z,98820.25
2022-10-06T18:18:01.398Z,98819.19
2022-10-06T18:20:27.971Z,98825.25
2022-10-06T18:22:54.532Z,98821.63
2022-10-06T18:25:26.526Z,98821.94
2022-10-06T18:27:53.440Z,98822.47
2022-10-06T18:30:20.016Z,98818.31
2022-10-06T18:38:21.021Z,98828.53
2022-10-06T18:40:54.084Z,98834.56
2022-10-06T18:43:20.769Z,98826.00
2022-10-06T18:45:47.509Z,98834.31
2022-10-06T18:48:15.488Z,98827.19
2022-10-06T18:50:42.066Z,98830.22
2022-10-06T18:53:08.602Z,98831.63
2022-10-06T18:55:35.275Z,98831.06
2022-10-06T18:58:02.100Z,98827.47
2022-10-06T19:00:28.746Z,98840.44
2022-10-06T19:02:55.328Z,98835.19
2022-10-06T19:05:23.547Z,98843.41
2022-10-06T19:07:52.770Z,98837.88
2022-10-06T19:10:19.342Z,98844.22
2022-10-06T19:12:45.878Z,98841.53
2022-10-06T19:15:15.381Z,98845.69
2022-10-06T19:17:44.799Z,98846.50
2022-10-06T19:20:12.319Z,98845.63
2022-10-06T19:22:40.253Z,98844.00
2022-10-06T19:25:07.401Z,98844.22
2022-10-06T19:27:35.858Z,98841.38
2022-10-06T19:30:02.420Z,98849.69
2022-10-06T19:32:30.903Z,98847.25
2022-10-06T19:34:57.481Z,98847.22
2022-10-06T19:37:24.283Z,98849.69
2022-10-06T19:39:52.473Z,98840.88
2022-10-06T19:42:19.690Z,98841.13
2022-10-06T19:44:46.312Z,98847.38
2022-10-06T19:47:14.912Z,98852.63
2022-10-06T19:49:42.523Z,98855.38
2022-10-06T19:52:10.853Z,98850.63
2022-10-06T19:54:37.418Z,98853.41
2022-10-06T19:57:05.934Z,98849.81
2022-10-06T19:59:33.100Z,98845.66
2022-10-06T20:01:59.661Z,98852.19
2022-10-06T20:04:26.311Z,98854.66
2022-10-06T20:06:53.198Z,98853.00
2022-10-06T20:09:21.555Z,98850.50
2022-10-06T20:11:49.696Z,98849.91
2022-10-06T20:14:20.952Z,98848.81
2022-10-06T20:16:49.167Z,98842.38
2022-10-06T20:19:15.957Z,98845.09
2022-10-06T20:21:42.698Z,98843.97
2022-10-06T20:24:12.643Z,98843.66
2022-10-06T20:26:41.134Z,98832.63
2022-10-06T20:29:10.105Z,98837.22
2022-10-06T20:31:39.880Z,98837.75
2022-10-06T20:34:09.285Z,98836.84
2022-10-06T20:36:36.823Z,98842.78
2022-10-06T20:39:04.068Z,98853.63
2022-10-06T20:41:31.243Z,98829.63
2022-10-06T20:43:58.489Z,98832.47
2022-10-06T20:46:26.262Z,98838.00
2022-10-06T20:48:54.190Z,98826.84
2022-10-06T20:51:25.471Z,98837.25
2022-10-06T20:53:54.183Z,98836.50
2022-10-06T20:56:20.738Z,98830.66
2022-10-06T20:58:47.288Z,98828.50
2022-10-06T21:01:14.311Z,98834.31
2022-10-06T21:03:45.264Z,98832.63
2022-10-06T21:06:13.751Z,98835.97
2022-10-06T21:08:41.065Z,98833.84
2022-10-06T21:11:07.807Z,98829.13
2022-10-06T21:13:34.521Z,98834.06
2022-10-06T21:16:01.762Z,98832.09
2022-10-06T21:18:28.658Z,98827.28
2022-10-06T21:20:55.869Z,98830.63
2022-10-06T21:23:23.961Z,98833.06
2022-10-06T21:25:50.667Z,98824.22
2022-10-06T21:28:17.454Z,98822.88
2022-10-06T21:30:44.761Z,98817.34
2022-10-06T21:33:11.708Z,98814.31
2022-10-06T21:35:38.491Z,98820.13
2022-10-06T21:38:05.214Z,98811.22
2022-10-06T21:40:35.617Z,98812.78
2022-10-06T21:43:02.349Z,98808.84
2022-10-06T21:45:32.918Z,98803.69
2022-10-06T21:47:59.918Z,98802.34
2022-10-06T21:50:26.633Z,98802.50
2022-10-06T21:52:53.332Z,98801.03
2022-10-06T21:55:20.033Z,98793.66
2022-10-06T21:57:48.176Z,98796.16
2022-10-06T22:00:15.160Z,98800.72
2022-10-06T22:02:41.926Z,98797.81
2022-10-06T22:05:09.040Z,98793.41
2022-10-06T22:07:35.834Z,98797.50
2022-10-06T22:10:02.609Z,98797.16
2022-10-06T22:12:29.481Z,98800.22
2022-10-06T22:14:57.623Z,98802.69
2022-10-06T22:17:24.459Z,98806.81
2022-10-06T22:19:51.169Z,98806.75
2022-10-06T22:22:17.947Z,98803.72
2022-10-06T22:24:44.671Z,98797.16
2022-10-06T22:27:11.376Z,98792.97
2022-10-06T22:29:38.073Z,98794.63
2022-10-06T22:32:06.154Z,98786.28
2022-10-06T22:34:32.848Z,98793.41
2022-10-06T22:36:59.572Z,98788.66
2022-10-06T22:39:26.663Z,98785.91
2022-10-06T22:41:53.409Z,98785.09
2022-10-06T22:44:20.108Z,98779.84
2022-10-06T22:46:46.966Z,98781.44
2022-10-06T22:49:15.149Z,98774.97
2022-10-06T22:51:41.964Z,98770.66
2022-10-06T22:54:15.710Z,98773.53
2022-10-06T22:56:42.444Z,98771.34
2022-10-06T22:59:09.153Z,98763.66
2022-10-06T23:01:35.882Z,98764.78
2022-10-06T23:04:02.584Z,98760.13
2022-10-06T23:06:30.690Z,98762.00
2022-10-06T23:08:57.623Z,98752.31
2022-10-06T23:11:24.363Z,98755.31
2022-10-06T23:13:51.092Z,98755.31
2022-10-06T23:16:19.448Z,98753.69
2022-10-06T23:18:47.000Z,98754.44
2022-10-06T23:21:15.571Z,98762.91
2022-10-06T23:23:43.661Z,98751.63
2022-10-06T23:26:12.367Z,98744.97
2022-10-06T23:28:39.633Z,98746.63
2022-10-06T23:31:08.785Z,98747.47
2022-10-06T23:33:35.904Z,98753.50
2022-10-06T23:36:04.715Z,98749.34
2022-10-06T23:38:31.610Z,98741.25
2022-10-06T23:40:59.733Z,98742.44
2022-10-06T23:43:26.508Z,98739.09
2022-10-06T23:45:53.370Z,98738.44
2022-10-06T23:48:20.141Z,98737.81
2022-10-06T23:50:55.787Z,98739.28
2022-10-06T23:53:22.525Z,98735.97
2022-10-06T23:55:49.265Z,98735.13
2022-10-06T23:58:17.455Z,98738.34
